Detall de PIREP

Printer-friendly versionPDF version

[2016/09/10 08:45:00]
Flight IATA:CT3309
Pilot Number:012
Company ICAO:CAT
Aircraft Type:A320/E
PAX:150
Departing Airport: HLLT
Destination Airport: LEZG
Alternate Airport:LEBL
Online: VATSIM
Route:TANLI UP128 TBS UA31 ALR UG30 SADAF UN856 RES UN863 ARBEK UN725 LOBAR
Flight Level:F360
No Slew and time accel
No pause
Crash detect
Detect pilot in Cockpit between each 30 and 45 minutes
08:45 Zero fuel Weight: 116764 Lbs, Fuel Weight: 23317 Lbs
08:45 VATSIM:No METAR available for HLLT.
08:45 VATSIM:LEZG 100830Z 30009KT 260V330 CAVOK 20/13 Q1019
08:45 PROVANT CATPLANES NOU
08:47 Parking Brakes off
08:52 Take-off
08:52 Take off Weight: 139128 Lbs
08:52 Wind: 343º @ 000 Knots Heading: 089º
08:52 POS N32º 39´ 53´´ E013º 09´ 07´´
08:52 Gear Up: 173 Knots
08:52 Flaps:3 at 173 Knots
08:53 Flaps:2 at 172 Knots
08:53 Flaps:0 at 197 Knots
09:07 Wind:284º@038 Knots Heading: 304º Ground Speed: 434 Knots Altitude 32483 ft
09:09 TOC
09:09 Fuel Weight: 18483 Lb
09:22 Wind:278º@043 Knots Heading: 304º Ground Speed: 424 Knots Altitude 36046 ft
09:37 Wind:276º@051 Knots Heading: 300º Ground Speed: 418 Knots Altitude 36131 ft
09:52 Wind:280º@055 Knots Heading: 281º Ground Speed: 409 Knots Altitude 36135 ft
10:07 Wind:284º@046 Knots Heading: 278º Ground Speed: 415 Knots Altitude 36082 ft
10:22 Wind:282º@035 Knots Heading: 324º Ground Speed: 438 Knots Altitude 36085 ft
10:37 Wind:315º@036 Knots Heading: 339º Ground Speed: 426 Knots Altitude 36085 ft
10:52 Wind:344º@030 Knots Heading: 353º Ground Speed: 430 Knots Altitude 36082 ft
10:56 TOD
10:56 Fuel Weight: 9030 Lb
11:07 Wind:309º@008 Knots Heading: 286º Ground Speed: 317 Knots Altitude 13835 ft
11:17 Flaps:1 at 189 Knots
11:19 Flaps:3 at 190 Knots
11:19 Gear Down: 186 Knots
11:19 Flaps:4 at 162 Knots
11:20 Flaps:5 at 151 Knots
11:22 Wind:311º@007 Knots Heading: 301º Ground Speed: 135 Knots Altitude 1151 ft
11:22 TouchDown:Rate -165 ft/min Speed: 137 Knots
11:22 VATSIM:LEZG 101100Z 30007KT 260V350 9999 FEW050 25/13 Q1018
11:22 Land
11:22 Wind:316º@007 Knots
11:22 Heading: 301º
11:22 Flight Duration: 02:30
11:22 Landing Weight: 123963 Lbs
11:22 POS N41º 39´ 39´´ W001º 01´ 15´´
11:25 Parking brakes on
11:25 Block to Block Duration: 02:38
11:25 Final Fuel: 6981 Lbls
11:25 Spent Fuel: 16336 Lbls
11:25 Flight Length: 987 NM
11:25 TOD Land Length: 125 NM

Exportar CSV

Powered by Drupal - Modified by Danger4k